sensor_id;sensor_type;location;lat;lon;timestamp;P1;durP1;ratioP1;P2;durP2;ratioP2
75408;SDS011;63979;55.644;37.734;2023-04-29T00:01:47;2.25;;;1.55;;
75408;SDS011;63979;55.644;37.734;2023-04-29T00:06:48;2.15;;;1.83;;
75408;SDS011;63979;55.644;37.734;2023-04-29T00:11:49;2.85;;;1.77;;
75408;SDS011;63979;55.644;37.734;2023-04-29T00:16:51;1.77;;;1.58;;
75408;SDS011;63979;55.644;37.734;2023-04-29T00:21:52;1.58;;;1.20;;
75408;SDS011;63979;55.644;37.734;2023-04-29T00:26:54;1.42;;;1.25;;
75408;SDS011;63979;55.644;37.734;2023-04-29T00:31:54;2.72;;;1.52;;
75408;SDS011;63979;55.644;37.734;2023-04-29T00:36:56;1.13;;;1.02;;
75408;SDS011;63979;55.644;37.734;2023-04-29T00:41:57;1.50;;;1.35;;
75408;SDS011;63979;55.644;37.734;2023-04-29T00:46:58;4.78;;;1.77;;
75408;SDS011;63979;55.644;37.734;2023-04-29T00:52:00;1.65;;;1.55;;
75408;SDS011;63979;55.644;37.734;2023-04-29T00:57:02;1.65;;;1.45;;
75408;SDS011;63979;55.644;37.734;2023-04-29T01:02:06;2.72;;;1.98;;
75408;SDS011;63979;55.644;37.734;2023-04-29T01:07:14;2.10;;;1.80;;
75408;SDS011;63979;55.644;37.734;2023-04-29T01:23:12;2.88;;;1.63;;
75408;SDS011;63979;55.644;37.734;2023-04-29T01:28:20;1.67;;;1.58;;
75408;SDS011;63979;55.644;37.734;2023-04-29T01:33:36;2.17;;;1.85;;
75408;SDS011;63979;55.644;37.734;2023-04-29T01:39:02;1.67;;;1.50;;
75408;SDS011;63979;55.644;37.734;2023-04-29T01:44:08;2.25;;;1.83;;
75408;SDS011;63979;55.644;37.734;2023-04-29T01:49:18;1.60;;;1.30;;
75408;SDS011;63979;55.644;37.734;2023-04-29T01:59:26;1.33;;;1.02;;
75408;SDS011;63979;55.644;37.734;2023-04-29T02:04:27;2.22;;;1.38;;
75408;SDS011;63979;55.644;37.734;2023-04-29T02:09:29;1.40;;;1.05;;
75408;SDS011;63979;55.644;37.734;2023-04-29T02:14:30;1.20;;;1.00;;
75408;SDS011;63979;55.644;37.734;2023-04-29T02:19:33;2.35;;;1.25;;
75408;SDS011;63979;55.644;37.734;2023-04-29T02:24:35;1.23;;;1.13;;
75408;SDS011;63979;55.644;37.734;2023-04-29T02:29:36;1.30;;;1.05;;
75408;SDS011;63979;55.644;37.734;2023-04-29T02:34:37;1.23;;;1.13;;
75408;SDS011;63979;55.644;37.734;2023-04-29T02:39:38;4.47;;;1.45;;
75408;SDS011;63979;55.644;37.734;2023-04-29T02:44:39;0.80;;;0.70;;
75408;SDS011;63979;55.644;37.734;2023-04-29T02:49:41;2.40;;;0.95;;
75408;SDS011;63979;55.644;37.734;2023-04-29T02:54:42;1.05;;;0.88;;
75408;SDS011;63979;55.644;37.734;2023-04-29T02:59:43;0.80;;;0.80;;
75408;SDS011;63979;55.644;37.734;2023-04-29T03:04:44;1.13;;;1.00;;
75408;SDS011;63979;55.644;37.734;2023-04-29T03:09:46;2.67;;;1.50;;
75408;SDS011;63979;55.644;37.734;2023-04-29T03:14:47;2.05;;;0.93;;
75408;SDS011;63979;55.644;37.734;2023-04-29T03:19:48;0.63;;;0.63;;
75408;SDS011;63979;55.644;37.734;2023-04-29T03:24:50;0.80;;;0.80;;
75408;SDS011;63979;55.644;37.734;2023-04-29T03:29:51;2.25;;;1.00;;
75408;SDS011;63979;55.644;37.734;2023-04-29T03:34:53;1.02;;;0.68;;
75408;SDS011;63979;55.644;37.734;2023-04-29T03:39:54;0.80;;;0.80;;
75408;SDS011;63979;55.644;37.734;2023-04-29T03:44:56;0.80;;;0.80;;
75408;SDS011;63979;55.644;37.734;2023-04-29T03:49:57;1.30;;;0.88;;
75408;SDS011;63979;55.644;37.734;2023-04-29T03:54:59;1.35;;;0.93;;
75408;SDS011;63979;55.644;37.734;2023-04-29T04:00:00;0.82;;;0.75;;
75408;SDS011;63979;55.644;37.734;2023-04-29T04:05:05;1.02;;;0.73;;
75408;SDS011;63979;55.644;37.734;2023-04-29T04:10:07;1.10;;;0.90;;
75408;SDS011;63979;55.644;37.734;2023-04-29T04:15:08;1.15;;;0.88;;
75408;SDS011;63979;55.644;37.734;2023-04-29T04:20:13;3.70;;;1.23;;
75408;SDS011;63979;55.644;37.734;2023-04-29T04:25:15;1.60;;;1.10;;
75408;SDS011;63979;55.644;37.734;2023-04-29T04:30:16;1.52;;;1.08;;
75408;SDS011;63979;55.644;37.734;2023-04-29T04:35:18;1.45;;;1.30;;
75408;SDS011;63979;55.644;37.734;2023-04-29T04:40:19;2.20;;;1.00;;
75408;SDS011;63979;55.644;37.734;2023-04-29T04:45:21;1.42;;;0.93;;
75408;SDS011;63979;55.644;37.734;2023-04-29T04:50:22;4.82;;;1.40;;
75408;SDS011;63979;55.644;37.734;2023-04-29T04:55:30;2.53;;;1.20;;
75408;SDS011;63979;55.644;37.734;2023-04-29T05:00:33;1.60;;;1.10;;
75408;SDS011;63979;55.644;37.734;2023-04-29T05:05:34;1.40;;;1.10;;
75408;SDS011;63979;55.644;37.734;2023-04-29T05:10:35;1.08;;;0.90;;
75408;SDS011;63979;55.644;37.734;2023-04-29T05:15:37;1.58;;;1.10;;
75408;SDS011;63979;55.644;37.734;2023-04-29T05:20:38;2.60;;;1.10;;
75408;SDS011;63979;55.644;37.734;2023-04-29T05:25:39;1.98;;;1.20;;
75408;SDS011;63979;55.644;37.734;2023-04-29T05:30:41;1.55;;;1.40;;
75408;SDS011;63979;55.644;37.734;2023-04-29T05:35:43;2.15;;;1.52;;
75408;SDS011;63979;55.644;37.734;2023-04-29T05:40:44;1.70;;;1.35;;
75408;SDS011;63979;55.644;37.734;2023-04-29T05:45:45;3.22;;;1.80;;
75408;SDS011;63979;55.644;37.734;2023-04-29T05:50:47;2.75;;;1.60;;
75408;SDS011;63979;55.644;37.734;2023-04-29T05:55:49;5.05;;;1.95;;
75408;SDS011;63979;55.644;37.734;2023-04-29T06:00:52;3.15;;;1.58;;
75408;SDS011;63979;55.644;37.734;2023-04-29T06:06:03;2.63;;;1.67;;
75408;SDS011;63979;55.644;37.734;2023-04-29T06:11:04;4.05;;;2.20;;
75408;SDS011;63979;55.644;37.734;2023-04-29T06:16:05;2.17;;;1.98;;
75408;SDS011;63979;55.644;37.734;2023-04-29T06:21:07;2.80;;;1.90;;
75408;SDS011;63979;55.644;37.734;2023-04-29T06:26:08;3.63;;;1.88;;
75408;SDS011;63979;55.644;37.734;2023-04-29T06:31:09;2.42;;;1.92;;
75408;SDS011;63979;55.644;37.734;2023-04-29T06:36:10;1.77;;;1.67;;
75408;SDS011;63979;55.644;37.734;2023-04-29T06:41:11;2.63;;;1.80;;
75408;SDS011;63979;55.644;37.734;2023-04-29T06:46:13;2.17;;;1.92;;
75408;SDS011;63979;55.644;37.734;2023-04-29T06:51:14;4.50;;;2.20;;
75408;SDS011;63979;55.644;37.734;2023-04-29T06:56:15;6.20;;;3.10;;
75408;SDS011;63979;55.644;37.734;2023-04-29T07:01:17;3.47;;;2.20;;
75408;SDS011;63979;55.644;37.734;2023-04-29T07:06:18;2.25;;;1.73;;
75408;SDS011;63979;55.644;37.734;2023-04-29T07:11:19;3.45;;;2.22;;
75408;SDS011;63979;55.644;37.734;2023-04-29T07:16:21;4.93;;;1.90;;
75408;SDS011;63979;55.644;37.734;2023-04-29T07:21:26;2.40;;;2.20;;
75408;SDS011;63979;55.644;37.734;2023-04-29T07:26:27;5.13;;;2.45;;
75408;SDS011;63979;55.644;37.734;2023-04-29T07:31:28;2.72;;;2.08;;
75408;SDS011;63979;55.644;37.734;2023-04-29T07:41:32;4.05;;;2.72;;
75408;SDS011;63979;55.644;37.734;2023-04-29T07:46:34;2.47;;;2.28;;
75408;SDS011;63979;55.644;37.734;2023-04-29T07:51:35;3.40;;;2.38;;
75408;SDS011;63979;55.644;37.734;2023-04-29T07:56:43;4.13;;;2.55;;
75408;SDS011;63979;55.644;37.734;2023-04-29T08:01:45;4.72;;;2.60;;
75408;SDS011;63979;55.644;37.734;2023-04-29T08:06:46;3.17;;;2.53;;
75408;SDS011;63979;55.644;37.734;2023-04-29T08:11:48;3.20;;;2.90;;
75408;SDS011;63979;55.644;37.734;2023-04-29T08:16:49;3.45;;;2.90;;
75408;SDS011;63979;55.644;37.734;2023-04-29T08:21:51;3.80;;;2.30;;
75408;SDS011;63979;55.644;37.734;2023-04-29T08:26:52;8.57;;;3.20;;
75408;SDS011;63979;55.644;37.734;2023-04-29T08:31:53;6.32;;;2.65;;
75408;SDS011;63979;55.644;37.734;2023-04-29T08:41:56;8.20;;;2.72;;
75408;SDS011;63979;55.644;37.734;2023-04-29T08:53:52;2.60;;;2.00;;
75408;SDS011;63979;55.644;37.734;2023-04-29T08:58:53;5.55;;;2.78;;
75408;SDS011;63979;55.644;37.734;2023-04-29T09:09:02;3.97;;;2.20;;
75408;SDS011;63979;55.644;37.734;2023-04-29T09:14:04;3.75;;;2.15;;
75408;SDS011;63979;55.644;37.734;2023-04-29T09:19:06;2.88;;;2.03;;
75408;SDS011;63979;55.644;37.734;2023-04-29T09:24:07;4.75;;;2.55;;
75408;SDS011;63979;55.644;37.734;2023-04-29T09:29:12;5.57;;;2.38;;
75408;SDS011;63979;55.644;37.734;2023-04-29T09:34:15;3.47;;;2.10;;
75408;SDS011;63979;55.644;37.734;2023-04-29T09:39:17;7.28;;;2.97;;
75408;SDS011;63979;55.644;37.734;2023-04-29T09:44:20;3.78;;;2.22;;
75408;SDS011;63979;55.644;37.734;2023-04-29T09:49:25;2.80;;;2.17;;
75408;SDS011;63979;55.644;37.734;2023-04-29T09:54:29;5.32;;;2.08;;
75408;SDS011;63979;55.644;37.734;2023-04-29T09:59:31;3.35;;;2.03;;
75408;SDS011;63979;55.644;37.734;2023-04-29T10:04:36;7.32;;;2.40;;
75408;SDS011;63979;55.644;37.734;2023-04-29T10:09:39;5.00;;;2.00;;
75408;SDS011;63979;55.644;37.734;2023-04-29T10:15:02;3.70;;;1.90;;
75408;SDS011;63979;55.644;37.734;2023-04-29T10:20:05;3.63;;;1.95;;
75408;SDS011;63979;55.644;37.734;2023-04-29T10:25:08;3.13;;;1.60;;
75408;SDS011;63979;55.644;37.734;2023-04-29T10:30:11;1.88;;;1.50;;
75408;SDS011;63979;55.644;37.734;2023-04-29T10:35:17;4.88;;;1.58;;
75408;SDS011;63979;55.644;37.734;2023-04-29T10:51:32;5.57;;;2.17;;
75408;SDS011;63979;55.644;37.734;2023-04-29T10:56:47;4.00;;;2.35;;
75408;SDS011;63979;55.644;37.734;2023-04-29T11:01:51;3.58;;;2.03;;
75408;SDS011;63979;55.644;37.734;2023-04-29T11:06:53;6.78;;;2.22;;
75408;SDS011;63979;55.644;37.734;2023-04-29T11:11:58;2.20;;;1.63;;
75408;SDS011;63979;55.644;37.734;2023-04-29T11:17:12;2.65;;;1.77;;
75408;SDS011;63979;55.644;37.734;2023-04-29T11:27:20;3.47;;;1.55;;
75408;SDS011;63979;55.644;37.734;2023-04-29T11:32:25;4.45;;;1.85;;
75408;SDS011;63979;55.644;37.734;2023-04-29T11:37:27;2.10;;;1.92;;
75408;SDS011;63979;55.644;37.734;2023-04-29T11:42:29;2.70;;;1.90;;
75408;SDS011;63979;55.644;37.734;2023-04-29T11:47:31;3.25;;;2.03;;
75408;SDS011;63979;55.644;37.734;2023-04-29T11:52:32;5.72;;;2.35;;
75408;SDS011;63979;55.644;37.734;2023-04-29T11:57:36;2.78;;;1.70;;
75408;SDS011;63979;55.644;37.734;2023-04-29T12:02:45;4.22;;;2.08;;
75408;SDS011;63979;55.644;37.734;2023-04-29T12:07:47;6.47;;;2.20;;
75408;SDS011;63979;55.644;37.734;2023-04-29T12:12:50;1.92;;;1.70;;
75408;SDS011;63979;55.644;37.734;2023-04-29T12:17:52;4.53;;;2.17;;
75408;SDS011;63979;55.644;37.734;2023-04-29T12:22:53;3.53;;;2.10;;
75408;SDS011;63979;55.644;37.734;2023-04-29T12:27:58;4.25;;;2.70;;
75408;SDS011;63979;55.644;37.734;2023-04-29T12:33:01;2.67;;;1.90;;
75408;SDS011;63979;55.644;37.734;2023-04-29T12:38:02;2.38;;;2.03;;
75408;SDS011;63979;55.644;37.734;2023-04-29T12:43:06;3.72;;;2.22;;
75408;SDS011;63979;55.644;37.734;2023-04-29T12:48:10;4.07;;;2.20;;
75408;SDS011;63979;55.644;37.734;2023-04-29T12:53:12;4.55;;;2.17;;
75408;SDS011;63979;55.644;37.734;2023-04-29T13:03:14;3.40;;;1.92;;
75408;SDS011;63979;55.644;37.734;2023-04-29T13:08:16;4.28;;;2.40;;
75408;SDS011;63979;55.644;37.734;2023-04-29T13:13:16;3.40;;;1.88;;
75408;SDS011;63979;55.644;37.734;2023-04-29T13:18:18;4.22;;;2.60;;
75408;SDS011;63979;55.644;37.734;2023-04-29T13:28:20;4.32;;;2.35;;
75408;SDS011;63979;55.644;37.734;2023-04-29T13:33:22;3.80;;;2.03;;
75408;SDS011;63979;55.644;37.734;2023-04-29T13:38:23;3.10;;;1.83;;
75408;SDS011;63979;55.644;37.734;2023-04-29T13:43:25;2.42;;;1.55;;
75408;SDS011;63979;55.644;37.734;2023-04-29T13:48:26;4.55;;;1.50;;
75408;SDS011;63979;55.644;37.734;2023-04-29T13:53:28;5.38;;;1.90;;
75408;SDS011;63979;55.644;37.734;2023-04-29T13:58:29;2.75;;;1.60;;
75408;SDS011;63979;55.644;37.734;2023-04-29T14:03:30;5.35;;;1.40;;
75408;SDS011;63979;55.644;37.734;2023-04-29T14:08:31;2.25;;;1.50;;
75408;SDS011;63979;55.644;37.734;2023-04-29T14:13:33;3.60;;;1.77;;
75408;SDS011;63979;55.644;37.734;2023-04-29T14:18:35;3.55;;;1.70;;
75408;SDS011;63979;55.644;37.734;2023-04-29T14:23:39;4.32;;;1.30;;
75408;SDS011;63979;55.644;37.734;2023-04-29T14:28:40;5.40;;;2.95;;
75408;SDS011;63979;55.644;37.734;2023-04-29T14:38:44;3.85;;;1.92;;
75408;SDS011;63979;55.644;37.734;2023-04-29T14:43:45;3.42;;;1.63;;
75408;SDS011;63979;55.644;37.734;2023-04-29T14:48:47;2.13;;;1.15;;
75408;SDS011;63979;55.644;37.734;2023-04-29T14:53:48;4.10;;;1.75;;
75408;SDS011;63979;55.644;37.734;2023-04-29T14:58:50;4.65;;;1.42;;
75408;SDS011;63979;55.644;37.734;2023-04-29T15:03:52;5.70;;;1.77;;
75408;SDS011;63979;55.644;37.734;2023-04-29T15:08:54;8.30;;;1.88;;
75408;SDS011;63979;55.644;37.734;2023-04-29T15:13:56;2.70;;;1.40;;
75408;SDS011;63979;55.644;37.734;2023-04-29T15:18:57;3.00;;;1.60;;
75408;SDS011;63979;55.644;37.734;2023-04-29T15:23:58;4.55;;;1.90;;
75408;SDS011;63979;55.644;37.734;2023-04-29T15:29:00;4.03;;;2.05;;
75408;SDS011;63979;55.644;37.734;2023-04-29T15:34:01;9.13;;;2.00;;
75408;SDS011;63979;55.644;37.734;2023-04-29T15:39:03;3.47;;;1.77;;
75408;SDS011;63979;55.644;37.734;2023-04-29T15:44:04;4.90;;;2.22;;
75408;SDS011;63979;55.644;37.734;2023-04-29T15:49:05;4.32;;;2.10;;
75408;SDS011;63979;55.644;37.734;2023-04-29T15:54:06;10.88;;;3.40;;
75408;SDS011;63979;55.644;37.734;2023-04-29T15:59:08;3.10;;;1.85;;
75408;SDS011;63979;55.644;37.734;2023-04-29T16:04:09;5.82;;;2.10;;
75408;SDS011;63979;55.644;37.734;2023-04-29T16:09:10;6.25;;;1.90;;
75408;SDS011;63979;55.644;37.734;2023-04-29T16:14:11;4.45;;;1.70;;
75408;SDS011;63979;55.644;37.734;2023-04-29T16:19:12;8.23;;;2.85;;
75408;SDS011;63979;55.644;37.734;2023-04-29T16:24:13;3.90;;;1.58;;
75408;SDS011;63979;55.644;37.734;2023-04-29T16:29:16;2.72;;;1.92;;
75408;SDS011;63979;55.644;37.734;2023-04-29T16:34:17;6.25;;;1.83;;
75408;SDS011;63979;55.644;37.734;2023-04-29T16:39:19;6.95;;;2.67;;
75408;SDS011;63979;55.644;37.734;2023-04-29T16:44:20;6.53;;;2.47;;
75408;SDS011;63979;55.644;37.734;2023-04-29T16:49:22;5.88;;;2.60;;
75408;SDS011;63979;55.644;37.734;2023-04-29T16:54:25;13.68;;;3.38;;
75408;SDS011;63979;55.644;37.734;2023-04-29T16:59:27;10.30;;;3.55;;
75408;SDS011;63979;55.644;37.734;2023-04-29T17:04:31;5.80;;;2.20;;
75408;SDS011;63979;55.644;37.734;2023-04-29T17:09:32;9.50;;;3.00;;
75408;SDS011;63979;55.644;37.734;2023-04-29T17:14:33;11.38;;;3.22;;
75408;SDS011;63979;55.644;37.734;2023-04-29T17:19:34;8.93;;;4.20;;
75408;SDS011;63979;55.644;37.734;2023-04-29T17:24:35;14.00;;;4.57;;
75408;SDS011;63979;55.644;37.734;2023-04-29T17:29:36;15.80;;;4.70;;
75408;SDS011;63979;55.644;37.734;2023-04-29T17:34:37;10.57;;;4.95;;
75408;SDS011;63979;55.644;37.734;2023-04-29T17:39:38;8.88;;;4.40;;
75408;SDS011;63979;55.644;37.734;2023-04-29T17:44:39;11.07;;;4.07;;
75408;SDS011;63979;55.644;37.734;2023-04-29T17:49:41;10.93;;;4.38;;
75408;SDS011;63979;55.644;37.734;2023-04-29T17:54:48;9.95;;;4.00;;
75408;SDS011;63979;55.644;37.734;2023-04-29T17:59:48;11.95;;;4.32;;
75408;SDS011;63979;55.644;37.734;2023-04-29T18:04:49;12.63;;;3.53;;
75408;SDS011;63979;55.644;37.734;2023-04-29T18:09:50;9.40;;;4.60;;
75408;SDS011;63979;55.644;37.734;2023-04-29T18:14:52;8.32;;;4.53;;
75408;SDS011;63979;55.644;37.734;2023-04-29T18:19:53;7.90;;;4.93;;
75408;SDS011;63979;55.644;37.734;2023-04-29T18:24:54;8.10;;;5.20;;
75408;SDS011;63979;55.644;37.734;2023-04-29T18:29:55;11.90;;;5.40;;
75408;SDS011;63979;55.644;37.734;2023-04-29T18:34:56;11.60;;;4.78;;
75408;SDS011;63979;55.644;37.734;2023-04-29T18:39:58;10.95;;;5.15;;
75408;SDS011;63979;55.644;37.734;2023-04-29T18:45:00;11.98;;;5.57;;
75408;SDS011;63979;55.644;37.734;2023-04-29T18:50:01;9.98;;;6.22;;
75408;SDS011;63979;55.644;37.734;2023-04-29T18:55:04;20.75;;;6.45;;
75408;SDS011;63979;55.644;37.734;2023-04-29T19:00:05;19.75;;;7.22;;
75408;SDS011;63979;55.644;37.734;2023-04-29T19:05:07;16.33;;;6.72;;
75408;SDS011;63979;55.644;37.734;2023-04-29T19:10:13;16.17;;;6.10;;
75408;SDS011;63979;55.644;37.734;2023-04-29T19:20:24;10.25;;;6.45;;
75408;SDS011;63979;55.644;37.734;2023-04-29T19:25:26;15.25;;;6.18;;
75408;SDS011;63979;55.644;37.734;2023-04-29T19:30:27;11.25;;;7.40;;
75408;SDS011;63979;55.644;37.734;2023-04-29T19:35:36;9.48;;;5.32;;
75408;SDS011;63979;55.644;37.734;2023-04-29T19:40:39;12.60;;;5.38;;
75408;SDS011;63979;55.644;37.734;2023-04-29T19:45:40;9.73;;;4.97;;
75408;SDS011;63979;55.644;37.734;2023-04-29T19:50:44;10.18;;;5.22;;
75408;SDS011;63979;55.644;37.734;2023-04-29T19:55:45;7.78;;;4.53;;
75408;SDS011;63979;55.644;37.734;2023-04-29T20:05:48;11.07;;;6.18;;
75408;SDS011;63979;55.644;37.734;2023-04-29T20:10:49;11.30;;;6.30;;
75408;SDS011;63979;55.644;37.734;2023-04-29T20:15:51;14.15;;;7.38;;
75408;SDS011;63979;55.644;37.734;2023-04-29T20:20:53;13.90;;;7.00;;
75408;SDS011;63979;55.644;37.734;2023-04-29T20:25:55;11.10;;;6.90;;
75408;SDS011;63979;55.644;37.734;2023-04-29T20:31:00;13.25;;;7.05;;
75408;SDS011;63979;55.644;37.734;2023-04-29T20:36:02;8.77;;;5.80;;
75408;SDS011;63979;55.644;37.734;2023-04-29T20:41:07;8.73;;;5.47;;
75408;SDS011;63979;55.644;37.734;2023-04-29T20:46:10;7.47;;;5.25;;
75408;SDS011;63979;55.644;37.734;2023-04-29T20:51:13;10.40;;;5.70;;
75408;SDS011;63979;55.644;37.734;2023-04-29T20:56:14;12.07;;;5.50;;
75408;SDS011;63979;55.644;37.734;2023-04-29T21:01:15;12.38;;;6.50;;
75408;SDS011;63979;55.644;37.734;2023-04-29T21:06:19;13.15;;;5.75;;
75408;SDS011;63979;55.644;37.734;2023-04-29T21:11:19;10.90;;;5.20;;
75408;SDS011;63979;55.644;37.734;2023-04-29T21:16:21;14.00;;;7.45;;
75408;SDS011;63979;55.644;37.734;2023-04-29T21:21:22;12.10;;;6.88;;
75408;SDS011;63979;55.644;37.734;2023-04-29T21:26:23;15.43;;;6.82;;
75408;SDS011;63979;55.644;37.734;2023-04-29T21:31:25;16.42;;;8.32;;
75408;SDS011;63979;55.644;37.734;2023-04-29T21:36:26;13.48;;;7.68;;
75408;SDS011;63979;55.644;37.734;2023-04-29T21:41:27;19.20;;;8.35;;
75408;SDS011;63979;55.644;37.734;2023-04-29T21:46:31;17.27;;;8.50;;
75408;SDS011;63979;55.644;37.734;2023-04-29T21:51:33;22.90;;;10.07;;
75408;SDS011;63979;55.644;37.734;2023-04-29T21:56:35;18.92;;;9.02;;
75408;SDS011;63979;55.644;37.734;2023-04-29T22:01:37;18.67;;;9.05;;
75408;SDS011;63979;55.644;37.734;2023-04-29T22:06:45;18.80;;;9.57;;
75408;SDS011;63979;55.644;37.734;2023-04-29T22:11:46;20.17;;;9.88;;
75408;SDS011;63979;55.644;37.734;2023-04-29T22:16:47;24.08;;;8.90;;
75408;SDS011;63979;55.644;37.734;2023-04-29T22:21:49;20.73;;;9.18;;
75408;SDS011;63979;55.644;37.734;2023-04-29T22:26:51;23.27;;;10.02;;
75408;SDS011;63979;55.644;37.734;2023-04-29T22:31:53;16.75;;;10.23;;
75408;SDS011;63979;55.644;37.734;2023-04-29T22:36:54;22.33;;;9.60;;
75408;SDS011;63979;55.644;37.734;2023-04-29T22:41:55;17.25;;;9.70;;
75408;SDS011;63979;55.644;37.734;2023-04-29T22:46:56;18.90;;;11.13;;
75408;SDS011;63979;55.644;37.734;2023-04-29T22:51:57;21.42;;;11.25;;
75408;SDS011;63979;55.644;37.734;2023-04-29T22:56:58;18.38;;;10.10;;
75408;SDS011;63979;55.644;37.734;2023-04-29T23:01:59;24.65;;;12.15;;
75408;SDS011;63979;55.644;37.734;2023-04-29T23:07:00;20.95;;;11.40;;
75408;SDS011;63979;55.644;37.734;2023-04-29T23:12:00;18.00;;;10.95;;
75408;SDS011;63979;55.644;37.734;2023-04-29T23:17:02;20.25;;;11.75;;
75408;SDS011;63979;55.644;37.734;2023-04-29T23:22:03;17.45;;;10.75;;
75408;SDS011;63979;55.644;37.734;2023-04-29T23:27:07;31.20;;;12.65;;
75408;SDS011;63979;55.644;37.734;2023-04-29T23:32:08;21.70;;;12.10;;
75408;SDS011;63979;55.644;37.734;2023-04-29T23:37:10;21.02;;;13.68;;
75408;SDS011;63979;55.644;37.734;2023-04-29T23:42:11;23.17;;;12.45;;
75408;SDS011;63979;55.644;37.734;2023-04-29T23:47:12;20.40;;;12.32;;
75408;SDS011;63979;55.644;37.734;2023-04-29T23:52:13;21.77;;;12.10;;
75408;SDS011;63979;55.644;37.734;2023-04-29T23:57:15;21.92;;;11.18;;
